Time;durP1;ratioP1;P1;durP2;ratioP2;P2;SDS_P1;SDS_P2;PMS_P1;PMS_P2;Temp;Humidity;BMP_temperature;BMP_pressure;BME280_temperature;BME280_humidity;BME280_pressure;Samples;Min_cycle;Max_cycle;Signal;HPM_P1;HPM_P2
2021/10/22 00:00:20;;;;;;;16.23;5.80;;;6.50;99.90;;;;;;5114979;28;20815;-63
2021/10/22 00:02:47;;;;;;;12.90;6.03;;;6.60;99.90;;;;;;5097055;28;20863;-63
2021/10/22 00:05:14;;;;;;;13.23;6.47;;;6.50;1.00;;;;;;5096498;28;20885;-63
2021/10/22 00:07:42;;;;;;;21.83;5.97;;;6.50;1.00;;;;;;5097116;28;20567;-63
2021/10/22 00:10:10;;;;;;;20.50;6.70;;;6.50;1.00;;;;;;5096753;28;20464;-64
2021/10/22 00:12:38;;;;;;;17.00;6.00;;;6.50;99.90;;;;;;5098866;28;20824;-63
2021/10/22 00:15:08;;;;;;;12.93;5.93;;;6.50;1.00;;;;;;5100977;28;20468;-63
2021/10/22 00:17:38;;;;;;;16.87;6.50;;;6.50;99.90;;;;;;5114259;28;20460;-63
2021/10/22 00:20:10;;;;;;;14.53;6.10;;;6.50;1.00;;;;;;5120160;28;20502;-63
2021/10/22 00:22:40;;;;;;;15.43;6.47;;;6.50;99.90;;;;;;5119594;28;20445;-63
2021/10/22 00:25:08;;;;;;;15.80;6.77;;;6.50;1.00;;;;;;5101944;28;20464;-63
2021/10/22 00:27:36;;;;;;;17.10;6.27;;;6.50;1.00;;;;;;5105762;28;20462;-63
2021/10/22 00:30:07;;;;;;;14.97;7.03;;;6.40;1.00;;;;;;5100388;28;20868;-63
2021/10/22 00:32:36;;;;;;;17.07;6.30;;;6.40;7.60;;;;;;5100150;28;20507;-63
2021/10/22 00:35:05;;;;;;;16.57;6.53;;;6.40;1.00;;;;;;5100223;28;20285;-63
2021/10/22 00:37:32;;;;;;;11.50;5.70;;;6.50;99.90;;;;;;5100364;28;20532;-63
2021/10/22 00:40:00;;;;;;;17.80;6.50;;;6.40;99.90;;;;;;5099963;28;20468;-63
2021/10/22 00:42:27;;;;;;;23.97;7.40;;;6.50;99.90;;;;;;5099788;28;20468;-63
2021/10/22 00:44:57;;;;;;;15.43;6.70;;;6.40;99.90;;;;;;5100495;28;20457;-63
2021/10/22 00:47:27;;;;;;;16.13;6.00;;;6.50;97.00;;;;;;5100548;28;20521;-63
2021/10/22 00:49:54;;;;;;;11.90;5.50;;;6.40;99.90;;;;;;5099805;28;20542;-63
2021/10/22 00:52:28;;;;;;;14.87;5.00;;;6.40;1.00;;;;;;5100254;28;20756;-63
2021/10/22 00:54:57;;;;;;;15.10;6.33;;;6.40;1.00;;;;;;5099955;28;20506;-63
2021/10/22 00:57:27;;;;;;;12.27;5.80;;;6.40;72.40;;;;;;5116885;28;20527;-63
2021/10/22 00:59:54;;;;;;;15.43;5.30;;;6.40;99.90;;;;;;5101757;28;20471;-63
2021/10/22 01:02:21;;;;;;;17.93;5.70;;;6.40;65.90;;;;;;5099886;28;20464;-63
2021/10/22 01:04:49;;;;;;;24.30;8.50;;;6.50;1.00;;;;;;5100026;28;20546;-63
2021/10/22 01:07:17;;;;;;;13.70;5.27;;;6.50;14.90;;;;;;5099811;28;20538;-63
2021/10/22 01:09:46;;;;;;;15.40;5.27;;;6.50;97.50;;;;;;5099909;28;20531;-63
2021/10/22 01:12:17;;;;;;;17.70;5.57;;;6.50;8.30;;;;;;5099176;28;20575;-64
2021/10/22 01:14:44;;;;;;;15.10;5.23;;;6.50;99.90;;;;;;5099716;28;20524;-63
2021/10/22 01:17:37;;;;;;;12.63;4.70;;;6.50;1.00;;;;;;5099460;28;20550;-63
2021/10/22 01:20:06;;;;;;;11.90;4.90;;;6.50;1.00;;;;;;5114513;28;20467;-63
2021/10/22 01:22:35;;;;;;;10.63;4.20;;;6.50;99.90;;;;;;5116865;28;20507;-63
2021/10/22 01:25:03;;;;;;;11.97;4.33;;;6.40;99.90;;;;;;5099468;28;20522;-63
2021/10/22 01:27:31;;;;;;;12.67;4.30;;;6.50;99.90;;;;;;5108463;28;20473;-63
2021/10/22 01:29:59;;;;;;;10.73;4.40;;;6.50;99.90;;;;;;5099024;28;20468;-63
2021/10/22 01:32:26;;;;;;;18.50;4.20;;;6.50;99.90;;;;;;5099146;28;20468;-63
2021/10/22 01:34:53;;;;;;;14.73;3.97;;;6.50;99.90;;;;;;5099414;28;20496;-61
2021/10/22 01:37:20;;;;;;;20.33;4.47;;;6.50;99.90;;;;;;5098709;28;20528;-61
2021/10/22 01:39:52;;;;;;;9.27;4.60;;;6.50;99.90;;;;;;5099004;28;20541;-61
2021/10/22 01:42:19;;;;;;;11.60;4.00;;;6.50;99.90;;;;;;5098589;28;20524;-61
2021/10/22 01:44:46;;;;;;;14.63;3.80;;;6.50;57.20;;;;;;5098937;28;20567;-61
2021/10/22 01:47:13;;;;;;;9.07;4.20;;;6.50;10.50;;;;;;5099084;28;20471;-61
2021/10/22 01:49:43;;;;;;;7.67;3.20;;;6.50;1.00;;;;;;5099036;28;20880;-61
2021/10/22 01:52:13;;;;;;;10.97;3.70;;;6.50;1.00;;;;;;5098833;28;20476;-61
2021/10/22 01:54:40;;;;;;;11.13;4.33;;;6.40;1.00;;;;;;5098593;28;20521;-61
2021/10/22 01:57:10;;;;;;;9.40;3.73;;;6.30;1.00;;;;;;5113821;28;20450;-61
2021/10/22 01:59:40;;;;;;;10.13;4.40;;;6.30;1.00;;;;;;5118391;28;20579;-61
2021/10/22 02:02:10;;;;;;;6.93;3.57;;;6.30;1.00;;;;;;5101928;28;20508;-61
2021/10/22 02:04:38;;;;;;;9.50;3.87;;;6.20;1.00;;;;;;5098695;28;20521;-61
2021/10/22 02:07:05;;;;;;;9.40;3.90;;;6.20;99.90;;;;;;5098627;28;20449;-62
2021/10/22 02:09:32;;;;;;;9.67;4.57;;;6.20;99.90;;;;;;5098637;28;20478;-61
2021/10/22 02:11:59;;;;;;;10.93;4.00;;;6.20;1.00;;;;;;5097985;28;20473;-61
2021/10/22 02:14:28;;;;;;;12.97;3.83;;;6.20;1.00;;;;;;5098211;28;20562;-61
2021/10/22 02:16:55;;;;;;;16.60;4.37;;;6.20;1.00;;;;;;5098068;28;20559;-61
2021/10/22 02:19:22;;;;;;;11.97;4.70;;;6.10;99.90;;;;;;5098454;28;20600;-61
2021/10/22 02:21:49;;;;;;;8.10;4.33;;;6.10;99.90;;;;;;5097925;28;20445;-60
2021/10/22 02:24:16;;;;;;;10.63;3.50;;;6.20;12.50;;;;;;5098834;28;20460;-61
2021/10/22 02:26:43;;;;;;;19.10;5.23;;;6.10;99.90;;;;;;5108141;28;20514;-60
2021/10/22 02:29:10;;;;;;;14.97;4.33;;;6.10;99.90;;;;;;5117736;28;20501;-61
2021/10/22 02:31:40;;;;;;;10.70;4.40;;;6.10;99.90;;;;;;5117864;28;20935;-61
2021/10/22 02:34:07;;;;;;;9.27;3.90;;;6.10;99.90;;;;;;5116563;28;20509;-61
2021/10/22 02:36:34;;;;;;;11.23;4.17;;;6.10;99.90;;;;;;5117274;28;20441;-61
2021/10/22 02:39:01;;;;;;;15.53;5.00;;;6.10;99.90;;;;;;5117539;28;20714;-61
2021/10/22 02:41:28;;;;;;;13.07;4.33;;;6.10;99.90;;;;;;5117367;28;20530;-62
2021/10/22 02:43:55;;;;;;;15.63;4.90;;;6.00;99.90;;;;;;5117228;28;20517;-61
2021/10/22 02:46:22;;;;;;;14.30;4.77;;;6.10;99.90;;;;;;5117471;28;20438;-61
2021/10/22 02:48:51;;;;;;;11.23;4.20;;;6.10;56.50;;;;;;5117235;28;20471;-61
2021/10/22 02:51:19;;;;;;;12.13;4.87;;;6.10;8.30;;;;;;5117869;28;20514;-61
2021/10/22 02:53:46;;;;;;;8.73;4.07;;;6.00;1.00;;;;;;5117231;28;20495;-61
2021/10/22 02:56:13;;;;;;;10.20;4.13;;;6.00;1.00;;;;;;5116574;28;20592;-61
2021/10/22 02:58:40;;;;;;;17.30;4.67;;;5.90;1.00;;;;;;5100029;28;20526;-61
2021/10/22 03:01:07;;;;;;;18.03;4.60;;;5.90;1.00;;;;;;5101594;28;20443;-61
2021/10/22 03:03:34;;;;;;;21.37;4.80;;;5.90;1.00;;;;;;5097735;28;20960;-61
2021/10/22 03:06:02;;;;;;;16.33;5.33;;;5.90;1.00;;;;;;5097298;28;20439;-61
2021/10/22 03:08:29;;;;;;;12.60;5.60;;;5.90;1.00;;;;;;5097321;28;20471;-61
2021/10/22 03:10:56;;;;;;;15.63;4.20;;;5.80;1.00;;;;;;5097483;28;20464;-61
2021/10/22 03:13:26;;;;;;;15.40;4.07;;;5.80;1.00;;;;;;5097458;28;20769;-61
2021/10/22 03:15:53;;;;;;;11.60;4.50;;;5.80;99.90;;;;;;5097058;28;20918;-61
2021/10/22 03:18:20;;;;;;;11.23;4.27;;;5.80;99.90;;;;;;5097478;28;20468;-61
2021/10/22 03:20:47;;;;;;;12.23;5.47;;;5.80;99.90;;;;;;5097283;28;20522;-61
2021/10/22 03:23:15;;;;;;;10.77;4.80;;;5.80;99.90;;;;;;5103571;28;20468;-61
2021/10/22 03:25:42;;;;;;;12.83;4.53;;;5.70;99.90;;;;;;5099163;28;20464;-61
2021/10/22 03:28:09;;;;;;;10.67;4.20;;;5.80;99.90;;;;;;5096903;28;20465;-61
2021/10/22 03:30:38;;;;;;;12.57;5.00;;;5.70;97.00;;;;;;5097145;28;20442;-62
2021/10/22 03:33:06;;;;;;;9.47;3.90;;;5.70;38.60;;;;;;5097468;28;20780;-61
2021/10/22 03:35:33;;;;;;;11.43;4.60;;;5.70;2.90;;;;;;5097542;28;20818;-61
2021/10/22 03:38:00;;;;;;;15.43;4.13;;;5.70;1.00;;;;;;5097219;28;20465;-61
2021/10/22 03:40:29;;;;;;;12.33;4.80;;;5.70;1.00;;;;;;5097129;28;20882;-61
2021/10/22 03:42:57;;;;;;;9.13;4.47;;;5.70;1.00;;;;;;5097067;28;20759;-61
2021/10/22 03:45:25;;;;;;;9.07;4.43;;;5.70;1.00;;;;;;5097415;28;20498;-61
2021/10/22 03:47:52;;;;;;;19.13;6.53;;;5.60;1.00;;;;;;5101093;28;20830;-61
2021/10/22 03:50:19;;;;;;;11.50;4.33;;;5.60;1.00;;;;;;5101286;28;20471;-61
2021/10/22 03:52:50;;;;;;;12.70;4.60;;;5.60;1.00;;;;;;5101293;28;20525;-61
2021/10/22 03:55:17;;;;;;;14.10;4.40;;;5.60;1.00;;;;;;5102204;28;20872;-60
2021/10/22 03:57:45;;;;;;;9.90;5.20;;;5.60;1.00;;;;;;5120688;28;20456;-61
2021/10/22 04:00:13;;;;;;;12.77;5.37;;;5.60;1.00;;;;;;5119870;28;20777;-61
2021/10/22 04:02:40;;;;;;;13.83;4.67;;;5.60;99.90;;;;;;5101189;28;20471;-61
2021/10/22 04:05:08;;;;;;;13.77;3.80;;;5.60;99.90;;;;;;5101070;28;20457;-61
2021/10/22 04:07:36;;;;;;;8.53;3.60;;;5.50;99.90;;;;;;5101002;28;20435;-60
2021/10/22 04:10:04;;;;;;;9.50;4.07;;;5.60;99.90;;;;;;5100704;28;20460;-61
2021/10/22 04:12:31;;;;;;;13.10;4.00;;;5.60;99.90;;;;;;5100737;28;20517;-60
2021/10/22 04:14:59;;;;;;;15.10;4.23;;;5.60;99.90;;;;;;5100566;28;20492;-60
2021/10/22 04:17:26;;;;;;;15.33;4.00;;;5.60;99.90;;;;;;5100927;28;20446;-60
2021/10/22 04:19:53;;;;;;;15.90;5.07;;;5.50;99.90;;;;;;5100615;28;20894;-61
2021/10/22 04:22:21;;;;;;;10.60;4.00;;;5.50;99.90;;;;;;5103268;28;20439;-61
2021/10/22 04:24:48;;;;;;;11.13;4.03;;;5.50;99.90;;;;;;5101986;28;20517;-61
2021/10/22 04:27:15;;;;;;;6.47;3.50;;;5.50;91.90;;;;;;5117833;28;20471;-60
2021/10/22 04:29:42;;;;;;;13.03;3.77;;;5.50;55.50;;;;;;5120314;28;20463;-61
2021/10/22 04:32:10;;;;;;;11.63;3.97;;;5.60;28.50;;;;;;5120011;28;20872;-60
2021/10/22 04:34:37;;;;;;;12.93;3.57;;;5.60;34.30;;;;;;5119896;28;20754;-60
2021/10/22 04:37:22;;;;;;;14.47;4.20;;;5.60;23.70;;;;;;5120036;28;20503;-60
2021/10/22 04:42:39;;;;;;;9.40;3.70;;;5.60;11.20;;;;;;5119380;28;20413;-60
2021/10/22 04:45:09;;;;;;;11.47;4.00;;;5.50;1.00;;;;;;5119855;28;20459;-60
2021/10/22 04:47:38;;;;;;;13.00;4.20;;;5.50;1.00;;;;;;5120235;28;20538;-60
2021/10/22 04:50:07;;;;;;;15.33;4.40;;;5.50;1.00;;;;;;5119599;28;20463;-61
2021/10/22 04:52:34;;;;;;;14.30;4.87;;;5.50;1.00;;;;;;5119673;28;20459;-60
2021/10/22 04:55:02;;;;;;;13.70;4.73;;;5.50;1.00;;;;;;5101632;28;20467;-60
2021/10/22 04:57:29;;;;;;;13.77;5.03;;;5.60;1.00;;;;;;5118512;28;20520;-61
2021/10/22 04:59:56;;;;;;;15.77;4.13;;;5.50;1.00;;;;;;5119079;28;20467;-61
2021/10/22 05:02:23;;;;;;;10.33;3.43;;;5.50;1.00;;;;;;5101198;28;20487;-60
2021/10/22 05:04:51;;;;;;;12.83;4.43;;;5.50;1.00;;;;;;5099932;28;20449;-60
2021/10/22 05:07:19;;;;;;;14.73;4.47;;;5.50;1.00;;;;;;5100058;28;20909;-61
2021/10/22 05:09:46;;;;;;;14.50;4.23;;;5.50;1.00;;;;;;5099378;28;20449;-60
2021/10/22 05:12:13;;;;;;;10.70;4.20;;;5.50;1.00;;;;;;5099426;28;20464;-60
2021/10/22 05:14:40;;;;;;;10.33;3.50;;;5.40;1.00;;;;;;5099561;28;21033;-60
2021/10/22 05:17:09;;;;;;;15.57;4.43;;;5.50;1.00;;;;;;5099343;28;20463;-60
2021/10/22 05:19:37;;;;;;;12.17;3.73;;;5.40;1.00;;;;;;5099817;28;20886;-61
2021/10/22 05:22:07;;;;;;;11.10;4.10;;;5.40;1.00;;;;;;5100050;28;20465;-60
2021/10/22 05:24:34;;;;;;;9.63;4.93;;;5.50;1.00;;;;;;5101209;28;20435;-60
2021/10/22 05:27:01;;;;;;;11.30;4.20;;;5.50;1.00;;;;;;5114521;28;20783;-60
2021/10/22 05:29:29;;;;;;;11.67;4.00;;;5.60;1.00;;;;;;5119414;28;20471;-60
2021/10/22 05:31:56;;;;;;;10.20;5.27;;;5.60;1.00;;;;;;5118779;28;20844;-61
2021/10/22 05:34:23;;;;;;;10.20;4.27;;;5.60;1.00;;;;;;5119197;28;20460;-60
2021/10/22 05:36:51;;;;;;;14.23;4.53;;;5.70;1.00;;;;;;5118767;28;20812;-60
2021/10/22 05:39:20;;;;;;;8.73;3.90;;;5.60;1.00;;;;;;5119011;28;20535;-60
2021/10/22 05:41:48;;;;;;;12.40;3.67;;;5.70;1.00;;;;;;5118447;28;20442;-60
2021/10/22 05:44:17;;;;;;;11.33;5.00;;;5.70;1.00;;;;;;5118884;28;20459;-60
2021/10/22 05:46:45;;;;;;;10.53;4.50;;;5.60;1.00;;;;;;5118685;28;20463;-60
2021/10/22 05:49:12;;;;;;;12.50;4.80;;;5.70;1.00;;;;;;5118895;28;20486;-60
2021/10/22 05:51:39;;;;;;;10.13;4.27;;;5.70;1.00;;;;;;5118892;28;20565;-60
2021/10/22 05:54:12;;;;;;;9.03;4.03;;;5.70;1.00;;;;;;5118120;28;20467;-60
2021/10/22 05:56:46;;;;;;;12.50;4.83;;;5.80;1.00;;;;;;5117830;28;20466;-60
2021/10/22 05:59:13;;;;;;;11.97;4.30;;;5.80;1.00;;;;;;5098702;28;20465;-61
2021/10/22 06:01:40;;;;;;;9.73;3.90;;;5.70;1.00;;;;;;5105612;28;20522;-61
2021/10/22 06:04:07;;;;;;;10.90;4.00;;;5.70;1.00;;;;;;5118019;28;20459;-61
2021/10/22 06:06:34;;;;;;;9.63;3.80;;;5.70;1.00;;;;;;5118176;28;20874;-61
2021/10/22 06:09:02;;;;;;;6.23;3.83;;;5.60;1.00;;;;;;5118316;28;20561;-60
2021/10/22 06:11:32;;;;;;;17.53;4.87;;;5.60;1.00;;;;;;5118145;28;20442;-61
2021/10/22 06:14:01;;;;;;;9.77;4.57;;;5.60;1.00;;;;;;5098125;28;20848;-60
2021/10/22 06:16:28;;;;;;;16.20;3.47;;;5.60;1.00;;;;;;5097296;28;20504;-60
2021/10/22 06:19:00;;;;;;;11.43;3.93;;;5.50;1.00;;;;;;5098112;28;20495;-60
2021/10/22 06:21:28;;;;;;;13.33;3.97;;;5.60;1.00;;;;;;5097927;28;20483;-60
2021/10/22 06:24:00;;;;;;;10.17;4.03;;;5.60;1.00;;;;;;5103113;28;20443;-61
2021/10/22 06:26:32;;;;;;;16.70;4.77;;;5.60;1.00;;;;;;5108433;28;20459;-60
2021/10/22 06:29:02;;;;;;;6.53;4.30;;;5.60;1.00;;;;;;5112438;28;20467;-61
2021/10/22 06:31:31;;;;;;;11.60;4.17;;;5.60;1.00;;;;;;5110035;28;20460;-61
2021/10/22 06:34:01;;;;;;;10.83;4.13;;;5.60;1.00;;;;;;5097944;28;20464;-61
2021/10/22 06:36:28;;;;;;;8.47;3.93;;;5.60;1.00;;;;;;5113110;27;22433;-60
2021/10/22 06:38:56;;;;;;;16.70;5.70;;;5.60;1.00;;;;;;5118298;27;20471;-61
2021/10/22 06:41:28;;;;;;;13.70;4.70;;;5.70;1.00;;;;;;5117544;28;20869;-62
2021/10/22 06:44:01;;;;;;;14.07;4.43;;;5.60;1.00;;;;;;5115134;28;20549;-60
2021/10/22 06:46:28;;;;;;;23.97;4.50;;;5.70;1.00;;;;;;5116854;28;20517;-61
2021/10/22 06:48:57;;;;;;;9.83;4.40;;;5.60;1.00;;;;;;5117462;28;20460;-61
2021/10/22 06:51:25;;;;;;;12.63;4.47;;;5.70;1.00;;;;;;5117522;28;20778;-61
2021/10/22 06:53:52;;;;;;;9.57;3.80;;;5.70;1.00;;;;;;5117274;28;20459;-61
2021/10/22 06:56:22;;;;;;;16.27;4.40;;;5.70;1.00;;;;;;5116532;28;21007;-61
2021/10/22 06:58:49;;;;;;;9.97;5.50;;;5.80;1.00;;;;;;5117054;28;20438;-61
2021/10/22 07:01:18;;;;;;;8.47;4.33;;;5.90;1.00;;;;;;5107785;28;20502;-61
2021/10/22 07:03:45;;;;;;;10.30;4.60;;;6.00;1.00;;;;;;5097525;28;20769;-61
2021/10/22 07:08:59;;;;;;;10.20;4.50;;;6.10;1.00;;;;;;5077643;28;20483;-61
2021/10/22 07:11:26;;;;;;;10.87;4.40;;;6.20;1.00;;;;;;5117101;28;20513;-61
2021/10/22 07:13:55;;;;;;;14.80;4.10;;;6.30;1.00;;;;;;5116696;28;20943;-61
2021/10/22 07:16:26;;;;;;;7.60;4.10;;;6.40;1.00;;;;;;5116960;28;20775;-61
2021/10/22 07:18:57;;;;;;;8.50;3.90;;;6.40;1.00;;;;;;5117483;28;20452;-61
2021/10/22 07:21:24;;;;;;;8.77;4.10;;;6.40;1.00;;;;;;5116642;28;20463;-61
2021/10/22 07:23:52;;;;;;;12.97;4.93;;;6.50;1.00;;;;;;5107196;28;20447;-61
2021/10/22 07:26:27;;;;;;;13.23;4.07;;;6.50;1.00;;;;;;5106541;28;20896;-64
2021/10/22 07:28:54;;;;;;;9.87;5.07;;;6.50;1.00;;;;;;5116845;28;20466;-64
2021/10/22 07:31:23;;;;;;;8.93;3.80;;;6.50;1.00;;;;;;5117027;28;20771;-63
2021/10/22 07:33:50;;;;;;;9.90;4.53;;;6.60;1.00;;;;;;5116936;28;20497;-64
2021/10/22 07:36:17;;;;;;;12.10;4.03;;;6.60;1.00;;;;;;5116775;28;21038;-64
2021/10/22 07:38:44;;;;;;;12.10;4.03;;;6.60;1.00;;;;;;5116565;28;20463;-64
2021/10/22 07:41:14;;;;;;;9.93;4.60;;;6.60;1.00;;;;;;5117231;28;20720;-64
2021/10/22 07:43:41;;;;;;;9.40;4.00;;;6.60;1.00;;;;;;5112114;28;20466;-64
2021/10/22 07:46:08;;;;;;;11.27;4.07;;;6.70;1.00;;;;;;5116099;28;20520;-64
2021/10/22 07:48:42;;;;;;;16.60;4.60;;;6.70;1.00;;;;;;5116615;28;20449;-64
2021/10/22 07:51:09;;;;;;;16.83;4.47;;;6.70;1.00;;;;;;5117258;28;20445;-64
2021/10/22 07:53:42;;;;;;;13.10;3.67;;;6.80;1.00;;;;;;5117083;28;20445;-64
2021/10/22 07:56:11;;;;;;;8.73;4.50;;;6.80;1.00;;;;;;5115901;28;20968;-65
2021/10/22 07:58:39;;;;;;;9.37;3.40;;;6.90;1.00;;;;;;5109809;28;20462;-64
2021/10/22 08:01:09;;;;;;;7.90;3.60;;;6.90;1.00;;;;;;5098078;28;20443;-64
2021/10/22 08:03:37;;;;;;;13.90;4.17;;;7.00;1.00;;;;;;5103187;28;20446;-64
2021/10/22 08:06:05;;;;;;;10.40;3.97;;;7.10;1.00;;;;;;5106616;28;20882;-63
2021/10/22 08:08:41;;;;;;;9.83;4.03;;;7.20;1.00;;;;;;5094524;28;20434;-63
2021/10/22 08:11:08;;;;;;;11.10;3.87;;;7.20;1.00;;;;;;5109924;28;20475;-63
2021/10/22 08:13:36;;;;;;;14.50;3.70;;;7.30;1.00;;;;;;5105956;28;20860;-63
2021/10/22 08:16:04;;;;;;;10.93;3.80;;;7.40;1.00;;;;;;5102618;28;20941;-63
2021/10/22 08:18:37;;;;;;;8.90;3.63;;;7.60;1.00;;;;;;5095652;28;20912;-62
2021/10/22 08:21:18;;;;;;;12.40;4.30;;;7.60;1.00;;;;;;5096464;28;20463;-63
2021/10/22 08:23:46;;;;;;;9.00;3.17;;;7.50;1.00;;;;;;5099681;28;20460;-63
2021/10/22 08:26:13;;;;;;;8.33;3.53;;;7.60;1.00;;;;;;5104848;28;20464;-62
2021/10/22 08:28:40;;;;;;;6.53;3.80;;;8.00;1.00;;;;;;5114564;28;20466;-63
2021/10/22 08:31:12;;;;;;;8.70;3.30;;;8.20;1.00;;;;;;5115159;28;20598;-63
2021/10/22 08:33:42;;;;;;;11.33;3.57;;;8.20;1.00;;;;;;5114743;28;20468;-63
2021/10/22 08:36:14;;;;;;;10.10;3.57;;;8.50;1.00;;;;;;5101882;28;20475;-62
2021/10/22 08:38:45;;;;;;;5.33;3.03;;;8.70;1.00;;;;;;5107553;28;20488;-62
2021/10/22 08:41:15;;;;;;;13.63;4.13;;;8.80;1.00;;;;;;5111250;28;20899;-60
2021/10/22 08:43:42;;;;;;;13.13;4.13;;;8.50;1.00;;;;;;5100189;28;20439;-59
2021/10/22 08:46:13;;;;;;;9.50;3.30;;;8.50;1.00;;;;;;5099911;28;20459;-56
2021/10/22 08:48:41;;;;;;;7.10;3.30;;;8.40;1.00;;;;;;5119275;28;20528;-58
2021/10/22 08:51:08;;;;;;;8.53;3.50;;;8.30;1.00;;;;;;5119964;28;20520;-59
2021/10/22 08:53:38;;;;;;;12.27;3.40;;;8.30;1.00;;;;;;5100137;28;20972;-58
2021/10/22 08:56:10;;;;;;;14.97;4.57;;;8.20;1.00;;;;;;5107214;28;20515;-59
2021/10/22 08:58:40;;;;;;;8.70;3.57;;;8.20;1.00;;;;;;5106741;28;20919;-58
2021/10/22 09:01:08;;;;;;;7.83;3.50;;;8.10;1.00;;;;;;5099777;28;20460;-58
2021/10/22 09:03:38;;;;;;;9.03;3.40;;;8.10;1.00;;;;;;5105002;28;20525;-58
2021/10/22 09:06:12;;;;;;;7.23;3.50;;;8.30;1.00;;;;;;5099853;28;20460;-56
2021/10/22 09:08:43;;;;;;;15.77;3.90;;;8.40;1.00;;;;;;5102228;28;20464;-58
2021/10/22 09:11:22;;;;;;;11.90;4.10;;;8.50;1.00;;;;;;5119823;28;20470;-57
2021/10/22 09:14:01;;;;;;;10.57;3.57;;;8.50;1.00;;;;;;5119073;28;20546;-57
2021/10/22 09:16:29;;;;;;;9.70;4.10;;;8.50;1.00;;;;;;5112144;28;20478;-57
2021/10/22 09:18:59;;;;;;;6.50;3.67;;;8.60;1.00;;;;;;5099820;28;20442;-57
2021/10/22 09:21:28;;;;;;;7.93;3.90;;;8.60;1.00;;;;;;5112513;28;20491;-56
2021/10/22 09:24:17;;;;;;;11.13;3.60;;;8.60;1.00;;;;;;5101203;28;20459;-57
2021/10/22 09:26:51;;;;;;;11.60;4.23;;;8.60;1.00;;;;;;5112689;28;20476;-59
2021/10/22 09:29:19;;;;;;;10.50;3.90;;;8.70;1.00;;;;;;5119113;28;20548;-55
2021/10/22 09:31:47;;;;;;;9.27;3.47;;;8.70;1.00;;;;;;5118545;28;20528;-57
2021/10/22 09:34:30;;;;;;;5.00;3.10;;;8.70;1.00;;;;;;5118997;28;20864;-58
2021/10/22 09:36:58;;;;;;;7.23;3.47;;;8.80;1.00;;;;;;5118909;28;20862;-57
2021/10/22 09:39:28;;;;;;;7.70;2.73;;;8.90;1.00;;;;;;5118807;28;20463;-58
2021/10/22 09:42:01;;;;;;;11.10;3.47;;;9.10;1.00;;;;;;5118992;28;20521;-55
2021/10/22 09:44:30;;;;;;;9.70;2.90;;;9.10;1.00;;;;;;5098419;28;20464;-58
2021/10/22 09:47:15;;;;;;;10.97;3.27;;;9.10;1.00;;;;;;5098958;28;20496;-56
2021/10/22 09:49:45;;;;;;;5.90;3.10;;;9.30;1.00;;;;;;5099187;28;20442;-58
2021/10/22 09:52:19;;;;;;;8.03;3.37;;;9.30;1.00;;;;;;5098647;28;20570;-55
2021/10/22 09:54:48;;;;;;;7.93;3.43;;;9.40;1.00;;;;;;5098930;28;20475;-57
2021/10/22 09:57:17;;;;;;;8.63;3.03;;;9.30;1.00;;;;;;5116788;28;20599;-57
2021/10/22 09:59:44;;;;;;;9.80;4.00;;;9.20;1.00;;;;;;5118295;28;20732;-56
2021/10/22 10:02:12;;;;;;;8.30;3.60;;;9.30;1.00;;;;;;5101109;28;20892;-58
2021/10/22 10:04:39;;;;;;;12.63;3.93;;;9.30;1.00;;;;;;5098825;28;20468;-56
2021/10/22 10:07:08;;;;;;;8.77;4.10;;;9.20;1.00;;;;;;5098724;28;20461;-57
2021/10/22 10:09:37;;;;;;;9.60;3.77;;;9.30;1.00;;;;;;5098745;28;20442;-58
2021/10/22 10:12:10;;;;;;;7.30;3.23;;;9.40;1.00;;;;;;5098559;28;20447;-56
2021/10/22 10:14:38;;;;;;;13.63;3.10;;;9.50;1.00;;;;;;5101234;28;20489;-57
2021/10/22 10:17:05;;;;;;;7.40;3.50;;;9.60;1.00;;;;;;5112015;28;20552;-57
2021/10/22 10:19:38;;;;;;;11.23;3.77;;;9.70;1.00;;;;;;5109009;28;20463;-59
2021/10/22 10:22:08;;;;;;;9.13;3.50;;;9.80;1.00;;;;;;5110799;28;20508;-57
2021/10/22 10:24:38;;;;;;;8.50;3.10;;;10.00;1.00;;;;;;5098555;28;20488;-57
2021/10/22 10:27:09;;;;;;;12.90;3.30;;;10.00;1.00;;;;;;5114242;28;20514;-57
2021/10/22 10:29:42;;;;;;;10.90;3.70;;;10.00;1.00;;;;;;5116841;28;20442;-58
2021/10/22 10:32:11;;;;;;;8.30;3.00;;;9.90;1.00;;;;;;5117352;28;20478;-57
2021/10/22 10:34:43;;;;;;;6.23;3.20;;;9.90;1.00;;;;;;5101965;28;20615;-56
2021/10/22 10:37:35;;;;;;;4.33;3.20;;;10.20;1.00;;;;;;5098226;28;20495;-61
2021/10/22 10:40:08;;;;;;;11.00;3.70;;;10.60;1.00;;;;;;5097806;28;20556;-59
2021/10/22 10:42:42;;;;;;;7.60;3.67;;;11.00;1.00;;;;;;5097829;28;20460;-59
2021/10/22 10:45:17;;;;;;;5.97;2.83;;;11.10;1.00;;;;;;5104481;28;20917;-61
2021/10/22 10:47:48;;;;;;;10.57;2.43;;;10.90;1.00;;;;;;5097553;28;20463;-56
2021/10/22 10:50:18;;;;;;;8.67;3.40;;;10.70;1.00;;;;;;5097626;28;20503;-58
2021/10/22 10:52:51;;;;;;;9.10;2.93;;;10.50;1.00;;;;;;5097950;28;20446;-58
2021/10/22 10:55:24;;;;;;;4.80;3.07;;;10.70;1.00;;;;;;5098805;28;20502;-58
2021/10/22 10:57:54;;;;;;;8.60;3.53;;;10.50;1.00;;;;;;5116824;28;20495;-56
2021/10/22 11:00:25;;;;;;;8.10;4.10;;;10.60;1.00;;;;;;5115107;28;20456;-56
2021/10/22 11:03:16;;;;;;;11.97;3.87;;;10.90;1.00;;;;;;5097765;28;20487;-53
2021/10/22 11:06:05;;;;;;;11.07;3.27;;;10.80;1.00;;;;;;5112885;28;20861;-53
2021/10/22 11:08:53;;;;;;;8.57;3.47;;;11.00;1.00;;;;;;5116926;28;20566;-61
2021/10/22 11:11:38;;;;;;;6.50;3.20;;;11.70;1.00;;;;;;5117249;28;20776;-58
2021/10/22 11:14:21;;;;;;;11.40;3.90;;;11.60;1.00;;;;;;5116228;28;20468;-58
2021/10/22 11:16:50;;;;;;;6.17;3.33;;;11.50;1.00;;;;;;5116845;28;20575;-55
2021/10/22 11:19:21;;;;;;;6.10;2.77;;;11.00;1.00;;;;;;5116424;28;20467;-53
2021/10/22 11:21:50;;;;;;;9.20;3.00;;;10.90;1.00;;;;;;5116893;28;20757;-49
2021/10/22 11:24:18;;;;;;;6.23;3.40;;;11.00;1.00;;;;;;5104120;28;20472;-54
2021/10/22 11:26:54;;;;;;;5.40;3.00;;;11.10;1.00;;;;;;5110188;28;20475;-54
2021/10/22 11:29:25;;;;;;;12.30;3.77;;;11.20;1.00;;;;;;5116399;28;20933;-57
2021/10/22 11:31:56;;;;;;;5.77;3.07;;;11.00;1.00;;;;;;5116966;28;20463;-51
2021/10/22 11:34:25;;;;;;;5.40;3.27;;;11.00;1.00;;;;;;5116348;28;20465;-54
2021/10/22 11:36:58;;;;;;;8.27;3.30;;;10.80;1.00;;;;;;5116664;28;20495;-56
2021/10/22 11:39:34;;;;;;;6.33;3.33;;;10.70;1.00;;;;;;5117093;28;20478;-56
2021/10/22 11:42:21;;;;;;;5.90;3.97;;;10.50;1.00;;;;;;5116678;28;20533;-52
2021/10/22 11:44:57;;;;;;;7.10;3.17;;;10.40;1.00;;;;;;5116176;28;20449;-51
2021/10/22 11:47:31;;;;;;;7.13;2.80;;;10.40;1.00;;;;;;5117128;28;20492;-58
2021/10/22 11:50:09;;;;;;;23.03;3.80;;;10.40;1.00;;;;;;5116595;28;20464;-53
2021/10/22 11:52:50;;;;;;;7.40;3.50;;;10.50;1.00;;;;;;5116693;28;20722;-55
2021/10/22 11:55:23;;;;;;;4.70;2.90;;;10.70;1.00;;;;;;5112226;28;20802;-53
2021/10/22 11:57:50;;;;;;;9.40;3.90;;;10.60;1.00;;;;;;5116432;28;20496;-54
2021/10/22 12:00:20;;;;;;;8.00;2.70;;;10.60;1.00;;;;;;5115335;28;20467;-60
2021/10/22 12:02:51;;;;;;;12.80;3.87;;;10.70;1.00;;;;;;5097095;28;20445;-52
2021/10/22 12:05:24;;;;;;;7.97;3.20;;;10.60;1.00;;;;;;5109490;28;20438;-52
2021/10/22 12:07:59;;;;;;;8.23;3.17;;;10.40;1.00;;;;;;5117413;28;20497;-56
2021/10/22 12:10:26;;;;;;;6.77;3.23;;;10.40;1.00;;;;;;5107080;28;20475;-52
2021/10/22 12:12:56;;;;;;;10.07;2.90;;;10.30;1.00;;;;;;5110847;28;20459;-55
2021/10/22 12:15:29;;;;;;;11.43;3.83;;;10.20;1.00;;;;;;5118066;28;20789;-58
2021/10/22 12:17:59;;;;;;;6.43;3.20;;;10.20;1.00;;;;;;5100812;28;20496;-55
2021/10/22 12:20:30;;;;;;;7.83;3.30;;;10.20;1.00;;;;;;5100829;28;20472;-52
2021/10/22 12:23:02;;;;;;;7.97;2.77;;;10.10;1.00;;;;;;5104968;28;20521;-59
2021/10/22 12:25:32;;;;;;;8.13;3.10;;;10.10;1.00;;;;;;5108290;28;20448;-54
2021/10/22 12:28:04;;;;;;;4.70;3.07;;;10.00;1.00;;;;;;5116624;28;20434;-56
2021/10/22 12:30:35;;;;;;;8.47;3.30;;;9.90;1.00;;;;;;5104629;28;20515;-55
2021/10/22 12:33:10;;;;;;;9.47;3.30;;;9.90;1.00;;;;;;5113516;28;20977;-57
2021/10/22 12:35:41;;;;;;;7.60;3.63;;;9.80;1.00;;;;;;5102244;28;20900;-58
2021/10/22 12:38:17;;;;;;;5.50;3.40;;;9.90;1.00;;;;;;5104380;28;20586;-60
2021/10/22 12:40:46;;;;;;;6.30;3.03;;;9.90;1.00;;;;;;5101313;28;20809;-62
2021/10/22 12:43:28;;;;;;;6.90;3.80;;;9.90;1.00;;;;;;5105041;28;20989;-62
2021/10/22 12:46:04;;;;;;;8.33;3.60;;;9.90;1.00;;;;;;5101111;28;20520;-62
2021/10/22 12:48:45;;;;;;;7.00;3.03;;;9.90;1.00;;;;;;5106545;28;20760;-59
2021/10/22 12:51:14;;;;;;;7.60;3.30;;;9.80;1.00;;;;;;5108192;28;20583;-60
2021/10/22 12:53:46;;;;;;;3.90;2.87;;;9.70;1.00;;;;;;5099487;28;20435;-58
2021/10/22 12:56:15;;;;;;;10.90;4.43;;;9.70;1.00;;;;;;5108064;28;20525;-60
2021/10/22 12:58:57;;;;;;;8.40;3.60;;;9.80;1.00;;;;;;5119138;28;20936;-58
2021/10/22 13:01:35;;;;;;;6.40;3.53;;;9.80;1.00;;;;;;5109503;28;20464;-59
2021/10/22 13:04:06;;;;;;;7.03;3.97;;;9.80;1.00;;;;;;5099836;28;20533;-58
2021/10/22 13:06:47;;;;;;;8.07;4.13;;;9.80;1.00;;;;;;5100248;28;20863;-59
2021/10/22 13:09:32;;;;;;;9.27;4.30;;;9.80;1.00;;;;;;5113519;28;20766;-58
2021/10/22 13:23:13;;;;;;;8.23;3.60;;;10.00;1.00;;;;;;5105944;28;20864;-59
2021/10/22 13:25:46;;;;;;;8.20;3.90;;;10.10;1.00;;;;;;5104425;28;20459;-59
2021/10/22 13:28:16;;;;;;;13.03;3.60;;;10.10;1.00;;;;;;5118355;28;20482;-54